<?xml version="1.0" encoding="UTF-8" standalone="no" ?>
<gpx xmlns="http://www.topografix.com/GPX/1/1" xmlns:xsi="http://www.w3.org/2001/XMLSchema-instance" xsi:schemaLocation="http://www.topografix.com/GPX/1/1 http://www.topografix.com/GPX/1/1/gpx.xsd" version="1.1" creator="VisuGPX - https://www.visugpx.com">
  <metadata>
    <name>St Quentin la Poterie 27km</name>
    <desc><![CDATA[St Quentin la Poterie 27km]]></desc>
  </metadata>
  <trk>
    <name><![CDATA[(c) UtagawaVTT.com]]></name>
    <trkseg>
      <trkpt lat="44.04358" lon="4.44063">
        <ele>111</ele>
        <time>2008-08-07T06:24:18.046Z</time>
      </trkpt>
      <trkpt lat="44.04377" lon="4.44063">
        <ele>112</ele>
        <time>2008-08-07T06:24:24.047Z</time>
      </trkpt>
      <trkpt lat="44.04382" lon="4.44117">
        <ele>112</ele>
        <time>2008-08-07T06:24:38.047Z</time>
      </trkpt>
      <trkpt lat="44.04392" lon="4.44128">
        <ele>125</ele>
        <time>2008-08-07T06:25:47.046Z</time>
      </trkpt>
      <trkpt lat="44.04378" lon="4.4412">
        <ele>126</ele>
        <time>2008-08-07T06:26:02.047Z</time>
      </trkpt>
      <trkpt lat="44.04452" lon="4.44137">
        <ele>135</ele>
        <time>2008-08-07T06:27:13.046Z</time>
      </trkpt>
      <trkpt lat="44.04472" lon="4.44145">
        <ele>143</ele>
        <time>2008-08-07T06:27:32.046Z</time>
      </trkpt>
      <trkpt lat="44.04458" lon="4.44207">
        <ele>141</ele>
        <time>2008-08-07T06:27:46.046Z</time>
      </trkpt>
      <trkpt lat="44.04442" lon="4.4427">
        <ele>140</ele>
        <time>2008-08-07T06:27:58.046Z</time>
      </trkpt>
      <trkpt lat="44.0443" lon="4.44363">
        <ele>137</ele>
        <time>2008-08-07T06:28:30.046Z</time>
      </trkpt>
      <trkpt lat="44.04398" lon="4.44515">
        <ele>134</ele>
        <time>2008-08-07T06:28:54.046Z</time>
      </trkpt>
      <trkpt lat="44.04385" lon="4.44555">
        <ele>134</ele>
        <time>2008-08-07T06:29:00.047Z</time>
      </trkpt>
      <trkpt lat="44.04397" lon="4.44577">
        <ele>135</ele>
        <time>2008-08-07T06:29:05.047Z</time>
      </trkpt>
      <trkpt lat="44.04432" lon="4.44585">
        <ele>136</ele>
        <time>2008-08-07T06:29:15.049Z</time>
      </trkpt>
      <trkpt lat="44.04443" lon="4.44612">
        <ele>138</ele>
        <time>2008-08-07T06:29:22.046Z</time>
      </trkpt>
      <trkpt lat="44.04443" lon="4.44672">
        <ele>136</ele>
        <time>2008-08-07T06:29:33.047Z</time>
      </trkpt>
      <trkpt lat="44.04458" lon="4.44712">
        <ele>135</ele>
        <time>2008-08-07T06:29:40.047Z</time>
      </trkpt>
      <trkpt lat="44.04465" lon="4.44762">
        <ele>136</ele>
        <time>2008-08-07T06:29:48.046Z</time>
      </trkpt>
      <trkpt lat="44.04517" lon="4.44873">
        <ele>140</ele>
        <time>2008-08-07T06:30:17.047Z</time>
      </trkpt>
      <trkpt lat="44.0453" lon="4.44918">
        <ele>138</ele>
        <time>2008-08-07T06:30:27.047Z</time>
      </trkpt>
      <trkpt lat="44.04603" lon="4.44943">
        <ele>136</ele>
        <time>2008-08-07T06:30:41.047Z</time>
      </trkpt>
      <trkpt lat="44.04625" lon="4.44938">
        <ele>139</ele>
        <time>2008-08-07T06:30:47.049Z</time>
      </trkpt>
      <trkpt lat="44.04632" lon="4.44793">
        <ele>141</ele>
        <time>2008-08-07T06:31:18.047Z</time>
      </trkpt>
      <trkpt lat="44.04635" lon="4.44748">
        <ele>141</ele>
        <time>2008-08-07T06:31:29.047Z</time>
      </trkpt>
      <trkpt lat="44.0464" lon="4.44685">
        <ele>146</ele>
        <time>2008-08-07T06:32:07.047Z</time>
      </trkpt>
      <trkpt lat="44.04658" lon="4.44647">
        <ele>153</ele>
        <time>2008-08-07T06:33:17.047Z</time>
      </trkpt>
      <trkpt lat="44.04645" lon="4.44663">
        <ele>167</ele>
        <time>2008-08-07T06:33:49.046Z</time>
      </trkpt>
      <trkpt lat="44.04677" lon="4.44643">
        <ele>167</ele>
        <time>2008-08-07T06:34:29.047Z</time>
      </trkpt>
      <trkpt lat="44.0466" lon="4.44627">
        <ele>165</ele>
        <time>2008-08-07T06:34:42.047Z</time>
      </trkpt>
      <trkpt lat="44.04637" lon="4.44608">
        <ele>164</ele>
        <time>2008-08-07T06:34:52.046Z</time>
      </trkpt>
      <trkpt lat="44.04635" lon="4.44583">
        <ele>164</ele>
        <time>2008-08-07T06:35:01.048Z</time>
      </trkpt>
      <trkpt lat="44.04627" lon="4.44552">
        <ele>164</ele>
        <time>2008-08-07T06:35:08.048Z</time>
      </trkpt>
      <trkpt lat="44.04633" lon="4.44515">
        <ele>162</ele>
        <time>2008-08-07T06:35:16.047Z</time>
      </trkpt>
      <trkpt lat="44.04627" lon="4.44473">
        <ele>159</ele>
        <time>2008-08-07T06:35:23.047Z</time>
      </trkpt>
      <trkpt lat="44.04625" lon="4.44425">
        <ele>159</ele>
        <time>2008-08-07T06:35:32.048Z</time>
      </trkpt>
      <trkpt lat="44.04695" lon="4.44432">
        <ele>159</ele>
        <time>2008-08-07T06:35:56.047Z</time>
      </trkpt>
      <trkpt lat="44.04698" lon="4.4449">
        <ele>165</ele>
        <time>2008-08-07T06:36:15.047Z</time>
      </trkpt>
      <trkpt lat="44.04727" lon="4.4449">
        <ele>176</ele>
        <time>2008-08-07T06:37:04.047Z</time>
      </trkpt>
      <trkpt lat="44.04753" lon="4.44533">
        <ele>172</ele>
        <time>2008-08-07T06:37:15.048Z</time>
      </trkpt>
      <trkpt lat="44.04765" lon="4.4459">
        <ele>176</ele>
        <time>2008-08-07T06:37:26.048Z</time>
      </trkpt>
      <trkpt lat="44.04775" lon="4.44638">
        <ele>173</ele>
        <time>2008-08-07T06:37:35.048Z</time>
      </trkpt>
      <trkpt lat="44.04858" lon="4.4466">
        <ele>168</ele>
        <time>2008-08-07T06:37:52.049Z</time>
      </trkpt>
      <trkpt lat="44.04882" lon="4.44662">
        <ele>167</ele>
        <time>2008-08-07T06:38:02.047Z</time>
      </trkpt>
      <trkpt lat="44.04895" lon="4.44702">
        <ele>170</ele>
        <time>2008-08-07T06:38:12.047Z</time>
      </trkpt>
      <trkpt lat="44.04912" lon="4.44788">
        <ele>159</ele>
        <time>2008-08-07T06:38:24.047Z</time>
      </trkpt>
      <trkpt lat="44.04918" lon="4.44873">
        <ele>153</ele>
        <time>2008-08-07T06:38:34.048Z</time>
      </trkpt>
      <trkpt lat="44.04917" lon="4.44912">
        <ele>151</ele>
        <time>2008-08-07T06:38:40.049Z</time>
      </trkpt>
      <trkpt lat="44.04928" lon="4.45112">
        <ele>144</ele>
        <time>2008-08-07T06:39:10.047Z</time>
      </trkpt>
      <trkpt lat="44.04955" lon="4.45155">
        <ele>144</ele>
        <time>2008-08-07T06:39:23.048Z</time>
      </trkpt>
      <trkpt lat="44.04965" lon="4.45167">
        <ele>147</ele>
        <time>2008-08-07T06:50:49.049Z</time>
      </trkpt>
      <trkpt lat="44.04978" lon="4.45207">
        <ele>147</ele>
        <time>2008-08-07T06:50:56.049Z</time>
      </trkpt>
      <trkpt lat="44.0503" lon="4.45213">
        <ele>147</ele>
        <time>2008-08-07T06:51:09.050Z</time>
      </trkpt>
      <trkpt lat="44.05047" lon="4.45325">
        <ele>144</ele>
        <time>2008-08-07T06:51:24.050Z</time>
      </trkpt>
      <trkpt lat="44.05047" lon="4.45377">
        <ele>143</ele>
        <time>2008-08-07T06:51:30.049Z</time>
      </trkpt>
      <trkpt lat="44.0509" lon="4.45385">
        <ele>145</ele>
        <time>2008-08-07T06:51:41.049Z</time>
      </trkpt>
      <trkpt lat="44.0511" lon="4.45463">
        <ele>146</ele>
        <time>2008-08-07T06:51:58.049Z</time>
      </trkpt>
      <trkpt lat="44.05212" lon="4.4546">
        <ele>155</ele>
        <time>2008-08-07T06:52:40.050Z</time>
      </trkpt>
      <trkpt lat="44.05227" lon="4.4548">
        <ele>159</ele>
        <time>2008-08-07T06:52:52.050Z</time>
      </trkpt>
      <trkpt lat="44.05253" lon="4.45582">
        <ele>161</ele>
        <time>2008-08-07T06:53:23.050Z</time>
      </trkpt>
      <trkpt lat="44.0534" lon="4.45647">
        <ele>157</ele>
        <time>2008-08-07T06:53:46.050Z</time>
      </trkpt>
      <trkpt lat="44.0542" lon="4.45632">
        <ele>157</ele>
        <time>2008-08-07T06:54:07.050Z</time>
      </trkpt>
      <trkpt lat="44.0543" lon="4.4568">
        <ele>156</ele>
        <time>2008-08-07T06:54:17.050Z</time>
      </trkpt>
      <trkpt lat="44.05453" lon="4.45702">
        <ele>156</ele>
        <time>2008-08-07T06:54:24.050Z</time>
      </trkpt>
      <trkpt lat="44.05505" lon="4.4571">
        <ele>151</ele>
        <time>2008-08-07T06:54:36.050Z</time>
      </trkpt>
      <trkpt lat="44.05572" lon="4.45733">
        <ele>146</ele>
        <time>2008-08-07T06:54:47.050Z</time>
      </trkpt>
      <trkpt lat="44.05678" lon="4.45707">
        <ele>146</ele>
        <time>2008-08-07T06:55:10.050Z</time>
      </trkpt>
      <trkpt lat="44.05723" lon="4.45697">
        <ele>145</ele>
        <time>2008-08-07T06:55:21.049Z</time>
      </trkpt>
      <trkpt lat="44.05745" lon="4.45705">
        <ele>144</ele>
        <time>2008-08-07T06:55:27.050Z</time>
      </trkpt>
      <trkpt lat="44.0573" lon="4.45792">
        <ele>141</ele>
        <time>2008-08-07T06:55:38.050Z</time>
      </trkpt>
      <trkpt lat="44.05727" lon="4.45913">
        <ele>137</ele>
        <time>2008-08-07T06:55:50.050Z</time>
      </trkpt>
      <trkpt lat="44.05688" lon="4.46135">
        <ele>130</ele>
        <time>2008-08-07T06:56:12.050Z</time>
      </trkpt>
      <trkpt lat="44.05553" lon="4.46117">
        <ele>128</ele>
        <time>2008-08-07T06:56:43.051Z</time>
      </trkpt>
      <trkpt lat="44.0511" lon="4.46022">
        <ele>121</ele>
        <time>2008-08-07T06:57:48.051Z</time>
      </trkpt>
      <trkpt lat="44.05085" lon="4.46123">
        <ele>117</ele>
        <time>2008-08-07T06:58:08.050Z</time>
      </trkpt>
      <trkpt lat="44.05062" lon="4.4619">
        <ele>120</ele>
        <time>2008-08-07T06:58:23.051Z</time>
      </trkpt>
      <trkpt lat="44.0504" lon="4.46232">
        <ele>123</ele>
        <time>2008-08-07T06:58:31.050Z</time>
      </trkpt>
      <trkpt lat="44.05023" lon="4.46315">
        <ele>126</ele>
        <time>2008-08-07T06:58:45.050Z</time>
      </trkpt>
      <trkpt lat="44.05023" lon="4.4637">
        <ele>134</ele>
        <time>2008-08-07T06:58:54.051Z</time>
      </trkpt>
      <trkpt lat="44.05023" lon="4.46447">
        <ele>143</ele>
        <time>2008-08-07T06:59:13.051Z</time>
      </trkpt>
      <trkpt lat="44.04992" lon="4.46462">
        <ele>143</ele>
        <time>2008-08-07T06:59:29.051Z</time>
      </trkpt>
      <trkpt lat="44.0496" lon="4.46475">
        <ele>135</ele>
        <time>2008-08-07T06:59:37.011Z</time>
      </trkpt>
      <trkpt lat="44.04928" lon="4.46487">
        <ele>136</ele>
        <time>2008-08-07T06:59:44.050Z</time>
      </trkpt>
      <trkpt lat="44.04905" lon="4.46467">
        <ele>135</ele>
        <time>2008-08-07T06:59:51.050Z</time>
      </trkpt>
      <trkpt lat="44.04887" lon="4.4643">
        <ele>133</ele>
        <time>2008-08-07T06:59:58.050Z</time>
      </trkpt>
      <trkpt lat="44.0486" lon="4.46388">
        <ele>130</ele>
        <time>2008-08-07T07:00:05.050Z</time>
      </trkpt>
      <trkpt lat="44.04785" lon="4.46415">
        <ele>129</ele>
        <time>2008-08-07T07:00:27.051Z</time>
      </trkpt>
      <trkpt lat="44.04775" lon="4.46442">
        <ele>132</ele>
        <time>2008-08-07T07:00:35.050Z</time>
      </trkpt>
      <trkpt lat="44.04777" lon="4.46482">
        <ele>131</ele>
        <time>2008-08-07T07:00:43.050Z</time>
      </trkpt>
      <trkpt lat="44.04772" lon="4.46518">
        <ele>136</ele>
        <time>2008-08-07T07:00:52.050Z</time>
      </trkpt>
      <trkpt lat="44.04772" lon="4.46553">
        <ele>133</ele>
        <time>2008-08-07T07:01:00.051Z</time>
      </trkpt>
      <trkpt lat="44.04753" lon="4.46598">
        <ele>138</ele>
        <time>2008-08-07T07:01:16.051Z</time>
      </trkpt>
      <trkpt lat="44.0475" lon="4.46623">
        <ele>138</ele>
        <time>2008-08-07T07:01:39.051Z</time>
      </trkpt>
      <trkpt lat="44.04747" lon="4.46682">
        <ele>154</ele>
        <time>2008-08-07T07:02:29.051Z</time>
      </trkpt>
      <trkpt lat="44.04758" lon="4.46713">
        <ele>165</ele>
        <time>2008-08-07T07:02:48.051Z</time>
      </trkpt>
      <trkpt lat="44.04773" lon="4.46723">
        <ele>176</ele>
        <time>2008-08-07T07:03:06.051Z</time>
      </trkpt>
      <trkpt lat="44.04792" lon="4.46785">
        <ele>163</ele>
        <time>2008-08-07T07:03:34.051Z</time>
      </trkpt>
      <trkpt lat="44.0479" lon="4.46838">
        <ele>169</ele>
        <time>2008-08-07T07:03:48.050Z</time>
      </trkpt>
      <trkpt lat="44.04788" lon="4.46858">
        <ele>176</ele>
        <time>2008-08-07T07:04:03.052Z</time>
      </trkpt>
      <trkpt lat="44.0475" lon="4.46895">
        <ele>206</ele>
        <time>2008-08-07T07:04:38.051Z</time>
      </trkpt>
      <trkpt lat="44.0475" lon="4.46922">
        <ele>196</ele>
        <time>2008-08-07T07:04:48.050Z</time>
      </trkpt>
      <trkpt lat="44.0475" lon="4.46948">
        <ele>201</ele>
        <time>2008-08-07T07:04:59.052Z</time>
      </trkpt>
      <trkpt lat="44.04752" lon="4.46975">
        <ele>187</ele>
        <time>2008-08-07T07:05:14.052Z</time>
      </trkpt>
      <trkpt lat="44.04785" lon="4.46972">
        <ele>189</ele>
        <time>2008-08-07T07:06:17.050Z</time>
      </trkpt>
      <trkpt lat="44.04817" lon="4.46952">
        <ele>187</ele>
        <time>2008-08-07T07:06:28.051Z</time>
      </trkpt>
      <trkpt lat="44.04858" lon="4.46937">
        <ele>192</ele>
        <time>2008-08-07T07:06:40.052Z</time>
      </trkpt>
      <trkpt lat="44.04898" lon="4.46928">
        <ele>191</ele>
        <time>2008-08-07T07:06:51.051Z</time>
      </trkpt>
      <trkpt lat="44.04942" lon="4.46932">
        <ele>191</ele>
        <time>2008-08-07T07:07:00.051Z</time>
      </trkpt>
      <trkpt lat="44.04985" lon="4.46905">
        <ele>191</ele>
        <time>2008-08-07T07:07:09.051Z</time>
      </trkpt>
      <trkpt lat="44.05018" lon="4.46897">
        <ele>190</ele>
        <time>2008-08-07T07:07:20.051Z</time>
      </trkpt>
      <trkpt lat="44.0505" lon="4.46923">
        <ele>191</ele>
        <time>2008-08-07T07:07:29.052Z</time>
      </trkpt>
      <trkpt lat="44.05085" lon="4.46942">
        <ele>191</ele>
        <time>2008-08-07T07:07:37.052Z</time>
      </trkpt>
      <trkpt lat="44.05133" lon="4.46965">
        <ele>187</ele>
        <time>2008-08-07T07:07:46.050Z</time>
      </trkpt>
      <trkpt lat="44.05165" lon="4.46987">
        <ele>184</ele>
        <time>2008-08-07T07:07:53.051Z</time>
      </trkpt>
      <trkpt lat="44.05188" lon="4.47023">
        <ele>175</ele>
        <time>2008-08-07T07:08:01.051Z</time>
      </trkpt>
      <trkpt lat="44.05237" lon="4.47068">
        <ele>163</ele>
        <time>2008-08-07T07:08:18.051Z</time>
      </trkpt>
      <trkpt lat="44.05493" lon="4.47085">
        <ele>136</ele>
        <time>2008-08-07T07:09:13.052Z</time>
      </trkpt>
      <trkpt lat="44.05583" lon="4.47243">
        <ele>134</ele>
        <time>2008-08-07T07:09:42.051Z</time>
      </trkpt>
      <trkpt lat="44.0564" lon="4.47318">
        <ele>134</ele>
        <time>2008-08-07T07:09:55.052Z</time>
      </trkpt>
      <trkpt lat="44.05692" lon="4.47437">
        <ele>135</ele>
        <time>2008-08-07T07:10:13.052Z</time>
      </trkpt>
      <trkpt lat="44.05705" lon="4.47592">
        <ele>136</ele>
        <time>2008-08-07T07:10:36.051Z</time>
      </trkpt>
      <trkpt lat="44.05695" lon="4.47698">
        <ele>138</ele>
        <time>2008-08-07T07:10:51.053Z</time>
      </trkpt>
      <trkpt lat="44.05712" lon="4.47847">
        <ele>140</ele>
        <time>2008-08-07T07:11:12.052Z</time>
      </trkpt>
      <trkpt lat="44.05725" lon="4.47938">
        <ele>143</ele>
        <time>2008-08-07T07:11:28.052Z</time>
      </trkpt>
      <trkpt lat="44.05867" lon="4.47932">
        <ele>142</ele>
        <time>2008-08-07T07:11:56.052Z</time>
      </trkpt>
      <trkpt lat="44.0589" lon="4.47937">
        <ele>145</ele>
        <time>2008-08-07T07:12:07.051Z</time>
      </trkpt>
      <trkpt lat="44.05897" lon="4.47972">
        <ele>148</ele>
        <time>2008-08-07T07:12:18.052Z</time>
      </trkpt>
      <trkpt lat="44.05918" lon="4.47995">
        <ele>153</ele>
        <time>2008-08-07T07:13:01.052Z</time>
      </trkpt>
      <trkpt lat="44.0598" lon="4.48025">
        <ele>153</ele>
        <time>2008-08-07T07:13:23.052Z</time>
      </trkpt>
      <trkpt lat="44.05988" lon="4.4805">
        <ele>154</ele>
        <time>2008-08-07T07:13:33.051Z</time>
      </trkpt>
      <trkpt lat="44.0601" lon="4.48052">
        <ele>155</ele>
        <time>2008-08-07T07:14:07.052Z</time>
      </trkpt>
      <trkpt lat="44.06017" lon="4.4805">
        <ele>153</ele>
        <time>2008-08-07T07:14:58.052Z</time>
      </trkpt>
      <trkpt lat="44.0603" lon="4.48022">
        <ele>155</ele>
        <time>2008-08-07T07:15:06.052Z</time>
      </trkpt>
      <trkpt lat="44.06025" lon="4.47933">
        <ele>154</ele>
        <time>2008-08-07T07:15:23.052Z</time>
      </trkpt>
      <trkpt lat="44.06052" lon="4.47912">
        <ele>158</ele>
        <time>2008-08-07T07:15:34.052Z</time>
      </trkpt>
      <trkpt lat="44.06062" lon="4.47863">
        <ele>159</ele>
        <time>2008-08-07T07:16:38.053Z</time>
      </trkpt>
      <trkpt lat="44.06063" lon="4.47805">
        <ele>160</ele>
        <time>2008-08-07T07:16:51.052Z</time>
      </trkpt>
      <trkpt lat="44.0606" lon="4.47767">
        <ele>159</ele>
        <time>2008-08-07T07:16:57.053Z</time>
      </trkpt>
      <trkpt lat="44.061" lon="4.47822">
        <ele>163</ele>
        <time>2008-08-07T07:17:16.054Z</time>
      </trkpt>
      <trkpt lat="44.06125" lon="4.47865">
        <ele>165</ele>
        <time>2008-08-07T07:17:26.054Z</time>
      </trkpt>
      <trkpt lat="44.06185" lon="4.47867">
        <ele>161</ele>
        <time>2008-08-07T07:17:41.053Z</time>
      </trkpt>
      <trkpt lat="44.06178" lon="4.48008">
        <ele>154</ele>
        <time>2008-08-07T07:18:01.052Z</time>
      </trkpt>
      <trkpt lat="44.06205" lon="4.48062">
        <ele>153</ele>
        <time>2008-08-07T07:18:07.053Z</time>
      </trkpt>
      <trkpt lat="44.0625" lon="4.48093">
        <ele>152</ele>
        <time>2008-08-07T07:18:14.054Z</time>
      </trkpt>
      <trkpt lat="44.0631" lon="4.481">
        <ele>153</ele>
        <time>2008-08-07T07:18:25.053Z</time>
      </trkpt>
      <trkpt lat="44.0635" lon="4.48105">
        <ele>156</ele>
        <time>2008-08-07T07:18:34.052Z</time>
      </trkpt>
      <trkpt lat="44.06635" lon="4.48212">
        <ele>157</ele>
        <time>2008-08-07T07:19:38.054Z</time>
      </trkpt>
      <trkpt lat="44.06695" lon="4.48225">
        <ele>159</ele>
        <time>2008-08-07T07:19:50.056Z</time>
      </trkpt>
      <trkpt lat="44.06727" lon="4.48302">
        <ele>160</ele>
        <time>2008-08-07T07:20:03.056Z</time>
      </trkpt>
      <trkpt lat="44.06727" lon="4.4838">
        <ele>164</ele>
        <time>2008-08-07T07:20:17.054Z</time>
      </trkpt>
      <trkpt lat="44.06743" lon="4.48422">
        <ele>164</ele>
        <time>2008-08-07T07:21:09.053Z</time>
      </trkpt>
      <trkpt lat="44.06893" lon="4.486">
        <ele>174</ele>
        <time>2008-08-07T07:22:28.056Z</time>
      </trkpt>
      <trkpt lat="44.06908" lon="4.48638">
        <ele>175</ele>
        <time>2008-08-07T07:22:38.056Z</time>
      </trkpt>
      <trkpt lat="44.06922" lon="4.48697">
        <ele>179</ele>
        <time>2008-08-07T07:22:56.054Z</time>
      </trkpt>
      <trkpt lat="44.0693" lon="4.48738">
        <ele>182</ele>
        <time>2008-08-07T07:23:10.056Z</time>
      </trkpt>
      <trkpt lat="44.0694" lon="4.4879">
        <ele>184</ele>
        <time>2008-08-07T07:23:24.054Z</time>
      </trkpt>
      <trkpt lat="44.06942" lon="4.48932">
        <ele>189</ele>
        <time>2008-08-07T07:23:58.056Z</time>
      </trkpt>
      <trkpt lat="44.0694" lon="4.48977">
        <ele>192</ele>
        <time>2008-08-07T07:24:07.053Z</time>
      </trkpt>
      <trkpt lat="44.06942" lon="4.4902">
        <ele>194</ele>
        <time>2008-08-07T07:24:19.053Z</time>
      </trkpt>
      <trkpt lat="44.0698" lon="4.49058">
        <ele>200</ele>
        <time>2008-08-07T07:24:40.053Z</time>
      </trkpt>
      <trkpt lat="44.07032" lon="4.49122">
        <ele>209</ele>
        <time>2008-08-07T07:25:06.053Z</time>
      </trkpt>
      <trkpt lat="44.07053" lon="4.49133">
        <ele>215</ele>
        <time>2008-08-07T07:25:16.054Z</time>
      </trkpt>
      <trkpt lat="44.07083" lon="4.49138">
        <ele>223</ele>
        <time>2008-08-07T07:25:32.054Z</time>
      </trkpt>
      <trkpt lat="44.07127" lon="4.49135">
        <ele>229</ele>
        <time>2008-08-07T07:25:52.053Z</time>
      </trkpt>
      <trkpt lat="44.0716" lon="4.49142">
        <ele>237</ele>
        <time>2008-08-07T07:26:08.054Z</time>
      </trkpt>
      <trkpt lat="44.07227" lon="4.49162">
        <ele>248</ele>
        <time>2008-08-07T07:26:38.054Z</time>
      </trkpt>
      <trkpt lat="44.07258" lon="4.4915">
        <ele>249</ele>
        <time>2008-08-07T07:26:46.054Z</time>
      </trkpt>
      <trkpt lat="44.07285" lon="4.49138">
        <ele>247</ele>
        <time>2008-08-07T07:26:53.054Z</time>
      </trkpt>
      <trkpt lat="44.0732" lon="4.4914">
        <ele>246</ele>
        <time>2008-08-07T07:27:03.053Z</time>
      </trkpt>
      <trkpt lat="44.0737" lon="4.49143">
        <ele>248</ele>
        <time>2008-08-07T07:27:20.054Z</time>
      </trkpt>
      <trkpt lat="44.07407" lon="4.49138">
        <ele>247</ele>
        <time>2008-08-07T07:27:30.054Z</time>
      </trkpt>
      <trkpt lat="44.07455" lon="4.49138">
        <ele>248</ele>
        <time>2008-08-07T07:27:44.054Z</time>
      </trkpt>
      <trkpt lat="44.07505" lon="4.49182">
        <ele>251</ele>
        <time>2008-08-07T07:28:04.054Z</time>
      </trkpt>
      <trkpt lat="44.0754" lon="4.49227">
        <ele>247</ele>
        <time>2008-08-07T07:28:18.054Z</time>
      </trkpt>
      <trkpt lat="44.07585" lon="4.49265">
        <ele>249</ele>
        <time>2008-08-07T07:28:34.053Z</time>
      </trkpt>
      <trkpt lat="44.07617" lon="4.49277">
        <ele>251</ele>
        <time>2008-08-07T07:28:45.054Z</time>
      </trkpt>
      <trkpt lat="44.07643" lon="4.49282">
        <ele>251</ele>
        <time>2008-08-07T07:28:54.054Z</time>
      </trkpt>
      <trkpt lat="44.07675" lon="4.4928">
        <ele>250</ele>
        <time>2008-08-07T07:29:04.055Z</time>
      </trkpt>
      <trkpt lat="44.07728" lon="4.49255">
        <ele>249</ele>
        <time>2008-08-07T07:29:22.055Z</time>
      </trkpt>
      <trkpt lat="44.07745" lon="4.49245">
        <ele>243</ele>
        <time>2008-08-07T07:29:37.055Z</time>
      </trkpt>
      <trkpt lat="44.07758" lon="4.4925">
        <ele>235</ele>
        <time>2008-08-07T07:31:31.055Z</time>
      </trkpt>
      <trkpt lat="44.0779" lon="4.49227">
        <ele>240</ele>
        <time>2008-08-07T07:31:45.054Z</time>
      </trkpt>
      <trkpt lat="44.07828" lon="4.49227">
        <ele>242</ele>
        <time>2008-08-07T07:31:55.054Z</time>
      </trkpt>
      <trkpt lat="44.07853" lon="4.4922">
        <ele>245</ele>
        <time>2008-08-07T07:32:02.054Z</time>
      </trkpt>
      <trkpt lat="44.0789" lon="4.49218">
        <ele>247</ele>
        <time>2008-08-07T07:32:13.055Z</time>
      </trkpt>
      <trkpt lat="44.07903" lon="4.49182">
        <ele>247</ele>
        <time>2008-08-07T07:32:23.055Z</time>
      </trkpt>
      <trkpt lat="44.07952" lon="4.49127">
        <ele>248</ele>
        <time>2008-08-07T07:32:38.054Z</time>
      </trkpt>
      <trkpt lat="44.0799" lon="4.49118">
        <ele>248</ele>
        <time>2008-08-07T07:32:47.054Z</time>
      </trkpt>
      <trkpt lat="44.07995" lon="4.49087">
        <ele>247</ele>
        <time>2008-08-07T07:33:31.055Z</time>
      </trkpt>
      <trkpt lat="44.07992" lon="4.49053">
        <ele>248</ele>
        <time>2008-08-07T07:33:39.054Z</time>
      </trkpt>
      <trkpt lat="44.07993" lon="4.49018">
        <ele>246</ele>
        <time>2008-08-07T07:33:47.055Z</time>
      </trkpt>
      <trkpt lat="44.07992" lon="4.48973">
        <ele>243</ele>
        <time>2008-08-07T07:33:55.054Z</time>
      </trkpt>
      <trkpt lat="44.07982" lon="4.48853">
        <ele>232</ele>
        <time>2008-08-07T07:34:12.054Z</time>
      </trkpt>
      <trkpt lat="44.07967" lon="4.48758">
        <ele>230</ele>
        <time>2008-08-07T07:34:30.054Z</time>
      </trkpt>
      <trkpt lat="44.07967" lon="4.48713">
        <ele>231</ele>
        <time>2008-08-07T07:34:38.055Z</time>
      </trkpt>
      <trkpt lat="44.07965" lon="4.4866">
        <ele>232</ele>
        <time>2008-08-07T07:34:49.054Z</time>
      </trkpt>
      <trkpt lat="44.07953" lon="4.48515">
        <ele>238</ele>
        <time>2008-08-07T07:35:28.056Z</time>
      </trkpt>
      <trkpt lat="44.07948" lon="4.48453">
        <ele>239</ele>
        <time>2008-08-07T07:35:49.055Z</time>
      </trkpt>
      <trkpt lat="44.07937" lon="4.48348">
        <ele>233</ele>
        <time>2008-08-07T07:36:12.055Z</time>
      </trkpt>
      <trkpt lat="44.07927" lon="4.48282">
        <ele>230</ele>
        <time>2008-08-07T07:36:26.055Z</time>
      </trkpt>
      <trkpt lat="44.0792" lon="4.48227">
        <ele>230</ele>
        <time>2008-08-07T07:36:37.054Z</time>
      </trkpt>
      <trkpt lat="44.07945" lon="4.48248">
        <ele>231</ele>
        <time>2008-08-07T07:36:51.054Z</time>
      </trkpt>
      <trkpt lat="44.07973" lon="4.48275">
        <ele>230</ele>
        <time>2008-08-07T07:36:59.056Z</time>
      </trkpt>
      <trkpt lat="44.0799" lon="4.4831">
        <ele>231</ele>
        <time>2008-08-07T07:37:06.056Z</time>
      </trkpt>
      <trkpt lat="44.08032" lon="4.4832">
        <ele>231</ele>
        <time>2008-08-07T07:37:16.057Z</time>
      </trkpt>
      <trkpt lat="44.0806" lon="4.48325">
        <ele>231</ele>
        <time>2008-08-07T07:37:23.055Z</time>
      </trkpt>
      <trkpt lat="44.081" lon="4.48297">
        <ele>230</ele>
        <time>2008-08-07T07:37:33.056Z</time>
      </trkpt>
      <trkpt lat="44.08167" lon="4.48197">
        <ele>233</ele>
        <time>2008-08-07T07:37:55.055Z</time>
      </trkpt>
      <trkpt lat="44.08198" lon="4.48187">
        <ele>236</ele>
        <time>2008-08-07T07:38:03.056Z</time>
      </trkpt>
      <trkpt lat="44.08278" lon="4.4819">
        <ele>234</ele>
        <time>2008-08-07T07:38:21.055Z</time>
      </trkpt>
      <trkpt lat="44.0833" lon="4.48168">
        <ele>232</ele>
        <time>2008-08-07T07:38:34.056Z</time>
      </trkpt>
      <trkpt lat="44.08387" lon="4.48093">
        <ele>236</ele>
        <time>2008-08-07T07:38:51.055Z</time>
      </trkpt>
      <trkpt lat="44.08427" lon="4.48093">
        <ele>238</ele>
        <time>2008-08-07T07:39:03.055Z</time>
      </trkpt>
      <trkpt lat="44.08443" lon="4.48085">
        <ele>240</ele>
        <time>2008-08-07T07:39:08.055Z</time>
      </trkpt>
      <trkpt lat="44.08423" lon="4.48057">
        <ele>238</ele>
        <time>2008-08-07T07:39:19.055Z</time>
      </trkpt>
      <trkpt lat="44.08412" lon="4.47998">
        <ele>237</ele>
        <time>2008-08-07T07:39:31.055Z</time>
      </trkpt>
      <trkpt lat="44.08395" lon="4.47967">
        <ele>237</ele>
        <time>2008-08-07T07:39:39.055Z</time>
      </trkpt>
      <trkpt lat="44.08382" lon="4.47923">
        <ele>237</ele>
        <time>2008-08-07T07:39:48.056Z</time>
      </trkpt>
      <trkpt lat="44.08372" lon="4.47882">
        <ele>237</ele>
        <time>2008-08-07T07:39:57.055Z</time>
      </trkpt>
      <trkpt lat="44.08363" lon="4.47833">
        <ele>236</ele>
        <time>2008-08-07T07:40:07.056Z</time>
      </trkpt>
      <trkpt lat="44.08367" lon="4.47797">
        <ele>236</ele>
        <time>2008-08-07T07:40:14.055Z</time>
      </trkpt>
      <trkpt lat="44.08367" lon="4.47753">
        <ele>236</ele>
        <time>2008-08-07T07:40:23.055Z</time>
      </trkpt>
      <trkpt lat="44.08358" lon="4.47715">
        <ele>235</ele>
        <time>2008-08-07T07:40:30.055Z</time>
      </trkpt>
      <trkpt lat="44.08372" lon="4.4769">
        <ele>235</ele>
        <time>2008-08-07T07:40:37.055Z</time>
      </trkpt>
      <trkpt lat="44.08412" lon="4.47692">
        <ele>235</ele>
        <time>2008-08-07T07:40:47.056Z</time>
      </trkpt>
      <trkpt lat="44.0846" lon="4.47683">
        <ele>233</ele>
        <time>2008-08-07T07:40:57.055Z</time>
      </trkpt>
      <trkpt lat="44.08647" lon="4.47727">
        <ele>228</ele>
        <time>2008-08-07T07:41:27.056Z</time>
      </trkpt>
      <trkpt lat="44.08688" lon="4.47727">
        <ele>228</ele>
        <time>2008-08-07T07:41:34.057Z</time>
      </trkpt>
      <trkpt lat="44.08727" lon="4.47723">
        <ele>228</ele>
        <time>2008-08-07T07:41:43.056Z</time>
      </trkpt>
      <trkpt lat="44.08915" lon="4.4761">
        <ele>232</ele>
        <time>2008-08-07T07:42:22.055Z</time>
      </trkpt>
      <trkpt lat="44.09168" lon="4.47733">
        <ele>230</ele>
        <time>2008-08-07T07:43:08.056Z</time>
      </trkpt>
      <trkpt lat="44.09285" lon="4.4772">
        <ele>230</ele>
        <time>2008-08-07T07:43:28.056Z</time>
      </trkpt>
      <trkpt lat="44.09417" lon="4.47798">
        <ele>239</ele>
        <time>2008-08-07T07:44:02.055Z</time>
      </trkpt>
      <trkpt lat="44.09458" lon="4.47812">
        <ele>243</ele>
        <time>2008-08-07T07:44:17.056Z</time>
      </trkpt>
      <trkpt lat="44.09468" lon="4.47895">
        <ele>247</ele>
        <time>2008-08-07T07:44:42.055Z</time>
      </trkpt>
      <trkpt lat="44.09467" lon="4.4793">
        <ele>248</ele>
        <time>2008-08-07T07:44:51.056Z</time>
      </trkpt>
      <trkpt lat="44.09473" lon="4.47963">
        <ele>252</ele>
        <time>2008-08-07T07:44:59.055Z</time>
      </trkpt>
      <trkpt lat="44.09462" lon="4.48">
        <ele>251</ele>
        <time>2008-08-07T07:45:06.056Z</time>
      </trkpt>
      <trkpt lat="44.09445" lon="4.48048">
        <ele>251</ele>
        <time>2008-08-07T07:45:16.056Z</time>
      </trkpt>
      <trkpt lat="44.09442" lon="4.48075">
        <ele>245</ele>
        <time>2008-08-07T07:47:46.056Z</time>
      </trkpt>
      <trkpt lat="44.0944" lon="4.48143">
        <ele>248</ele>
        <time>2008-08-07T07:48:13.057Z</time>
      </trkpt>
      <trkpt lat="44.09452" lon="4.4817">
        <ele>249</ele>
        <time>2008-08-07T07:48:20.057Z</time>
      </trkpt>
      <trkpt lat="44.09455" lon="4.48213">
        <ele>251</ele>
        <time>2008-08-07T07:48:32.058Z</time>
      </trkpt>
      <trkpt lat="44.0946" lon="4.48268">
        <ele>252</ele>
        <time>2008-08-07T07:48:44.056Z</time>
      </trkpt>
      <trkpt lat="44.09462" lon="4.48323">
        <ele>254</ele>
        <time>2008-08-07T07:48:55.057Z</time>
      </trkpt>
      <trkpt lat="44.09453" lon="4.48372">
        <ele>251</ele>
        <time>2008-08-07T07:49:05.056Z</time>
      </trkpt>
      <trkpt lat="44.09445" lon="4.48425">
        <ele>249</ele>
        <time>2008-08-07T07:49:14.057Z</time>
      </trkpt>
      <trkpt lat="44.09437" lon="4.48487">
        <ele>249</ele>
        <time>2008-08-07T07:49:24.056Z</time>
      </trkpt>
      <trkpt lat="44.09423" lon="4.48543">
        <ele>249</ele>
        <time>2008-08-07T07:49:33.057Z</time>
      </trkpt>
      <trkpt lat="44.09412" lon="4.48603">
        <ele>250</ele>
        <time>2008-08-07T07:49:43.056Z</time>
      </trkpt>
      <trkpt lat="44.09407" lon="4.48668">
        <ele>249</ele>
        <time>2008-08-07T07:49:53.056Z</time>
      </trkpt>
      <trkpt lat="44.09393" lon="4.48768">
        <ele>246</ele>
        <time>2008-08-07T07:50:09.056Z</time>
      </trkpt>
      <trkpt lat="44.0939" lon="4.48848">
        <ele>240</ele>
        <time>2008-08-07T07:50:19.057Z</time>
      </trkpt>
      <trkpt lat="44.09427" lon="4.48843">
        <ele>242</ele>
        <time>2008-08-07T07:50:29.057Z</time>
      </trkpt>
      <trkpt lat="44.09465" lon="4.48827">
        <ele>243</ele>
        <time>2008-08-07T07:50:37.056Z</time>
      </trkpt>
      <trkpt lat="44.09487" lon="4.48795">
        <ele>243</ele>
        <time>2008-08-07T07:50:43.056Z</time>
      </trkpt>
      <trkpt lat="44.0955" lon="4.48812">
        <ele>234</ele>
        <time>2008-08-07T07:50:55.057Z</time>
      </trkpt>
      <trkpt lat="44.0958" lon="4.48813">
        <ele>231</ele>
        <time>2008-08-07T07:51:03.057Z</time>
      </trkpt>
      <trkpt lat="44.09607" lon="4.48817">
        <ele>235</ele>
        <time>2008-08-07T07:52:11.057Z</time>
      </trkpt>
      <trkpt lat="44.09648" lon="4.48768">
        <ele>237</ele>
        <time>2008-08-07T07:52:25.057Z</time>
      </trkpt>
      <trkpt lat="44.09673" lon="4.48768">
        <ele>237</ele>
        <time>2008-08-07T07:52:47.057Z</time>
      </trkpt>
      <trkpt lat="44.09658" lon="4.48778">
        <ele>237</ele>
        <time>2008-08-07T07:53:45.057Z</time>
      </trkpt>
      <trkpt lat="44.09652" lon="4.48728">
        <ele>229</ele>
        <time>2008-08-07T07:55:10.056Z</time>
      </trkpt>
      <trkpt lat="44.0963" lon="4.48688">
        <ele>226</ele>
        <time>2008-08-07T07:55:17.058Z</time>
      </trkpt>
      <trkpt lat="44.09587" lon="4.48623">
        <ele>234</ele>
        <time>2008-08-07T07:55:47.057Z</time>
      </trkpt>
      <trkpt lat="44.0958" lon="4.48597">
        <ele>243</ele>
        <time>2008-08-07T07:56:30.058Z</time>
      </trkpt>
      <trkpt lat="44.09575" lon="4.48575">
        <ele>248</ele>
        <time>2008-08-07T07:56:54.057Z</time>
      </trkpt>
      <trkpt lat="44.0956" lon="4.48537">
        <ele>250</ele>
        <time>2008-08-07T07:57:13.057Z</time>
      </trkpt>
      <trkpt lat="44.09562" lon="4.48437">
        <ele>249</ele>
        <time>2008-08-07T07:57:42.058Z</time>
      </trkpt>
      <trkpt lat="44.09562" lon="4.4839">
        <ele>253</ele>
        <time>2008-08-07T07:57:59.058Z</time>
      </trkpt>
      <trkpt lat="44.09563" lon="4.48347">
        <ele>254</ele>
        <time>2008-08-07T07:58:15.058Z</time>
      </trkpt>
      <trkpt lat="44.09562" lon="4.48308">
        <ele>258</ele>
        <time>2008-08-07T07:58:31.058Z</time>
      </trkpt>
      <trkpt lat="44.0955" lon="4.48275">
        <ele>261</ele>
        <time>2008-08-07T07:58:45.058Z</time>
      </trkpt>
      <trkpt lat="44.0955" lon="4.4822">
        <ele>257</ele>
        <time>2008-08-07T07:58:59.058Z</time>
      </trkpt>
      <trkpt lat="44.09542" lon="4.48168">
        <ele>251</ele>
        <time>2008-08-07T07:59:08.058Z</time>
      </trkpt>
      <trkpt lat="44.09518" lon="4.48135">
        <ele>249</ele>
        <time>2008-08-07T07:59:17.057Z</time>
      </trkpt>
      <trkpt lat="44.09547" lon="4.48143">
        <ele>247</ele>
        <time>2008-08-07T07:59:26.057Z</time>
      </trkpt>
      <trkpt lat="44.09555" lon="4.48078">
        <ele>242</ele>
        <time>2008-08-07T07:59:36.057Z</time>
      </trkpt>
      <trkpt lat="44.09578" lon="4.4798">
        <ele>239</ele>
        <time>2008-08-07T07:59:49.058Z</time>
      </trkpt>
      <trkpt lat="44.09603" lon="4.47908">
        <ele>243</ele>
        <time>2008-08-07T07:59:59.057Z</time>
      </trkpt>
      <trkpt lat="44.09608" lon="4.47783">
        <ele>244</ele>
        <time>2008-08-07T08:00:27.057Z</time>
      </trkpt>
      <trkpt lat="44.09622" lon="4.47728">
        <ele>243</ele>
        <time>2008-08-07T08:00:36.058Z</time>
      </trkpt>
      <trkpt lat="44.09637" lon="4.47558">
        <ele>242</ele>
        <time>2008-08-07T08:01:04.058Z</time>
      </trkpt>
      <trkpt lat="44.09622" lon="4.4748">
        <ele>241</ele>
        <time>2008-08-07T08:01:16.057Z</time>
      </trkpt>
      <trkpt lat="44.09588" lon="4.47408">
        <ele>240</ele>
        <time>2008-08-07T08:01:30.057Z</time>
      </trkpt>
      <trkpt lat="44.09558" lon="4.47392">
        <ele>243</ele>
        <time>2008-08-07T08:01:38.057Z</time>
      </trkpt>
      <trkpt lat="44.09538" lon="4.47375">
        <ele>245</ele>
        <time>2008-08-07T08:01:47.057Z</time>
      </trkpt>
      <trkpt lat="44.09562" lon="4.4733">
        <ele>243</ele>
        <time>2008-08-07T08:01:57.058Z</time>
      </trkpt>
      <trkpt lat="44.09602" lon="4.4727">
        <ele>241</ele>
        <time>2008-08-07T08:02:12.058Z</time>
      </trkpt>
      <trkpt lat="44.09608" lon="4.4721">
        <ele>241</ele>
        <time>2008-08-07T08:02:24.057Z</time>
      </trkpt>
      <trkpt lat="44.09618" lon="4.47162">
        <ele>242</ele>
        <time>2008-08-07T08:02:47.059Z</time>
      </trkpt>
      <trkpt lat="44.09632" lon="4.47128">
        <ele>240</ele>
        <time>2008-08-07T08:03:06.057Z</time>
      </trkpt>
      <trkpt lat="44.09628" lon="4.47087">
        <ele>238</ele>
        <time>2008-08-07T08:03:19.058Z</time>
      </trkpt>
      <trkpt lat="44.0963" lon="4.47038">
        <ele>241</ele>
        <time>2008-08-07T08:03:33.058Z</time>
      </trkpt>
      <trkpt lat="44.0964" lon="4.4701">
        <ele>242</ele>
        <time>2008-08-07T08:03:43.058Z</time>
      </trkpt>
      <trkpt lat="44.09642" lon="4.4698">
        <ele>251</ele>
        <time>2008-08-07T08:04:33.057Z</time>
      </trkpt>
      <trkpt lat="44.09638" lon="4.46935">
        <ele>268</ele>
        <time>2008-08-07T08:05:20.058Z</time>
      </trkpt>
      <trkpt lat="44.09633" lon="4.46913">
        <ele>265</ele>
        <time>2008-08-07T08:06:05.058Z</time>
      </trkpt>
      <trkpt lat="44.09633" lon="4.46875">
        <ele>268</ele>
        <time>2008-08-07T08:06:18.059Z</time>
      </trkpt>
      <trkpt lat="44.09633" lon="4.46852">
        <ele>265</ele>
        <time>2008-08-07T08:06:41.059Z</time>
      </trkpt>
      <trkpt lat="44.09633" lon="4.46828">
        <ele>261</ele>
        <time>2008-08-07T08:07:26.059Z</time>
      </trkpt>
      <trkpt lat="44.09612" lon="4.46823">
        <ele>266</ele>
        <time>2008-08-07T08:07:56.059Z</time>
      </trkpt>
      <trkpt lat="44.0959" lon="4.46835">
        <ele>266</ele>
        <time>2008-08-07T08:08:08.059Z</time>
      </trkpt>
      <trkpt lat="44.09573" lon="4.46878">
        <ele>264</ele>
        <time>2008-08-07T08:08:24.059Z</time>
      </trkpt>
      <trkpt lat="44.09565" lon="4.46897">
        <ele>262</ele>
        <time>2008-08-07T08:08:33.059Z</time>
      </trkpt>
      <trkpt lat="44.09545" lon="4.47005">
        <ele>260</ele>
        <time>2008-08-07T08:09:06.059Z</time>
      </trkpt>
      <trkpt lat="44.09518" lon="4.4697">
        <ele>257</ele>
        <time>2008-08-07T08:09:18.059Z</time>
      </trkpt>
      <trkpt lat="44.09465" lon="4.46947">
        <ele>254</ele>
        <time>2008-08-07T08:09:28.059Z</time>
      </trkpt>
      <trkpt lat="44.09208" lon="4.46893">
        <ele>239</ele>
        <time>2008-08-07T08:10:13.058Z</time>
      </trkpt>
      <trkpt lat="44.09173" lon="4.46887">
        <ele>240</ele>
        <time>2008-08-07T08:10:22.059Z</time>
      </trkpt>
      <trkpt lat="44.0915" lon="4.46868">
        <ele>238</ele>
        <time>2008-08-07T08:10:29.059Z</time>
      </trkpt>
      <trkpt lat="44.09125" lon="4.4684">
        <ele>237</ele>
        <time>2008-08-07T08:10:48.060Z</time>
      </trkpt>
      <trkpt lat="44.0904" lon="4.46763">
        <ele>228</ele>
        <time>2008-08-07T08:11:06.059Z</time>
      </trkpt>
      <trkpt lat="44.09" lon="4.46762">
        <ele>226</ele>
        <time>2008-08-07T08:11:16.058Z</time>
      </trkpt>
      <trkpt lat="44.08985" lon="4.46723">
        <ele>224</ele>
        <time>2008-08-07T08:11:24.059Z</time>
      </trkpt>
      <trkpt lat="44.0896" lon="4.46688">
        <ele>222</ele>
        <time>2008-08-07T08:11:32.060Z</time>
      </trkpt>
      <trkpt lat="44.08937" lon="4.46653">
        <ele>222</ele>
        <time>2008-08-07T08:11:40.059Z</time>
      </trkpt>
      <trkpt lat="44.08908" lon="4.46632">
        <ele>224</ele>
        <time>2008-08-07T08:11:49.060Z</time>
      </trkpt>
      <trkpt lat="44.08878" lon="4.46675">
        <ele>234</ele>
        <time>2008-08-07T08:12:07.059Z</time>
      </trkpt>
      <trkpt lat="44.08842" lon="4.46715">
        <ele>235</ele>
        <time>2008-08-07T08:12:20.060Z</time>
      </trkpt>
      <trkpt lat="44.08763" lon="4.46885">
        <ele>236</ele>
        <time>2008-08-07T08:12:51.059Z</time>
      </trkpt>
      <trkpt lat="44.08742" lon="4.46923">
        <ele>236</ele>
        <time>2008-08-07T08:12:58.059Z</time>
      </trkpt>
      <trkpt lat="44.08737" lon="4.4698">
        <ele>234</ele>
        <time>2008-08-07T08:13:06.060Z</time>
      </trkpt>
      <trkpt lat="44.08757" lon="4.47062">
        <ele>233</ele>
        <time>2008-08-07T08:13:17.059Z</time>
      </trkpt>
      <trkpt lat="44.08772" lon="4.4712">
        <ele>232</ele>
        <time>2008-08-07T08:13:25.060Z</time>
      </trkpt>
      <trkpt lat="44.0878" lon="4.4719">
        <ele>231</ele>
        <time>2008-08-07T08:13:40.059Z</time>
      </trkpt>
      <trkpt lat="44.08753" lon="4.4716">
        <ele>233</ele>
        <time>2008-08-07T08:13:53.060Z</time>
      </trkpt>
      <trkpt lat="44.08728" lon="4.47132">
        <ele>235</ele>
        <time>2008-08-07T08:14:03.059Z</time>
      </trkpt>
      <trkpt lat="44.08695" lon="4.47088">
        <ele>234</ele>
        <time>2008-08-07T08:14:16.060Z</time>
      </trkpt>
      <trkpt lat="44.0867" lon="4.47052">
        <ele>233</ele>
        <time>2008-08-07T08:14:26.060Z</time>
      </trkpt>
      <trkpt lat="44.08647" lon="4.47015">
        <ele>232</ele>
        <time>2008-08-07T08:14:34.060Z</time>
      </trkpt>
      <trkpt lat="44.08627" lon="4.46995">
        <ele>232</ele>
        <time>2008-08-07T08:14:40.060Z</time>
      </trkpt>
      <trkpt lat="44.08605" lon="4.4697">
        <ele>231</ele>
        <time>2008-08-07T08:14:48.060Z</time>
      </trkpt>
      <trkpt lat="44.0865" lon="4.47345">
        <ele>227</ele>
        <time>2008-08-07T08:15:36.060Z</time>
      </trkpt>
      <trkpt lat="44.0851" lon="4.47177">
        <ele>227</ele>
        <time>2008-08-07T08:16:17.060Z</time>
      </trkpt>
      <trkpt lat="44.08465" lon="4.471">
        <ele>228</ele>
        <time>2008-08-07T08:16:31.060Z</time>
      </trkpt>
      <trkpt lat="44.08407" lon="4.47033">
        <ele>228</ele>
        <time>2008-08-07T08:16:45.061Z</time>
      </trkpt>
      <trkpt lat="44.08373" lon="4.46972">
        <ele>229</ele>
        <time>2008-08-07T08:16:54.061Z</time>
      </trkpt>
      <trkpt lat="44.08325" lon="4.469">
        <ele>228</ele>
        <time>2008-08-07T08:17:06.061Z</time>
      </trkpt>
      <trkpt lat="44.08245" lon="4.46705">
        <ele>228</ele>
        <time>2008-08-07T08:17:35.060Z</time>
      </trkpt>
      <trkpt lat="44.08217" lon="4.46662">
        <ele>228</ele>
        <time>2008-08-07T08:17:43.059Z</time>
      </trkpt>
      <trkpt lat="44.08185" lon="4.46628">
        <ele>228</ele>
        <time>2008-08-07T08:17:51.060Z</time>
      </trkpt>
      <trkpt lat="44.08158" lon="4.46587">
        <ele>228</ele>
        <time>2008-08-07T08:17:59.060Z</time>
      </trkpt>
      <trkpt lat="44.08127" lon="4.46562">
        <ele>229</ele>
        <time>2008-08-07T08:18:06.061Z</time>
      </trkpt>
      <trkpt lat="44.08012" lon="4.46375">
        <ele>230</ele>
        <time>2008-08-07T08:18:38.060Z</time>
      </trkpt>
      <trkpt lat="44.07978" lon="4.46343">
        <ele>230</ele>
        <time>2008-08-07T08:19:15.060Z</time>
      </trkpt>
      <trkpt lat="44.07822" lon="4.4624">
        <ele>231</ele>
        <time>2008-08-07T08:19:53.060Z</time>
      </trkpt>
      <trkpt lat="44.0777" lon="4.46217">
        <ele>232</ele>
        <time>2008-08-07T08:20:04.061Z</time>
      </trkpt>
      <trkpt lat="44.07742" lon="4.46195">
        <ele>232</ele>
        <time>2008-08-07T08:20:12.060Z</time>
      </trkpt>
      <trkpt lat="44.07603" lon="4.46165">
        <ele>230</ele>
        <time>2008-08-07T08:20:41.059Z</time>
      </trkpt>
      <trkpt lat="44.07567" lon="4.46133">
        <ele>227</ele>
        <time>2008-08-07T08:20:50.060Z</time>
      </trkpt>
      <trkpt lat="44.07523" lon="4.4613">
        <ele>223</ele>
        <time>2008-08-07T08:20:58.060Z</time>
      </trkpt>
      <trkpt lat="44.0749" lon="4.4615">
        <ele>221</ele>
        <time>2008-08-07T08:21:04.060Z</time>
      </trkpt>
      <trkpt lat="44.07463" lon="4.46173">
        <ele>220</ele>
        <time>2008-08-07T08:21:11.060Z</time>
      </trkpt>
      <trkpt lat="44.07425" lon="4.46137">
        <ele>216</ele>
        <time>2008-08-07T08:21:23.059Z</time>
      </trkpt>
      <trkpt lat="44.07388" lon="4.46132">
        <ele>216</ele>
        <time>2008-08-07T08:21:39.060Z</time>
      </trkpt>
      <trkpt lat="44.07362" lon="4.46143">
        <ele>214</ele>
        <time>2008-08-07T08:22:20.060Z</time>
      </trkpt>
      <trkpt lat="44.07327" lon="4.4614">
        <ele>211</ele>
        <time>2008-08-07T08:22:33.061Z</time>
      </trkpt>
      <trkpt lat="44.07287" lon="4.46122">
        <ele>206</ele>
        <time>2008-08-07T08:22:43.061Z</time>
      </trkpt>
      <trkpt lat="44.07253" lon="4.46132">
        <ele>202</ele>
        <time>2008-08-07T08:22:51.060Z</time>
      </trkpt>
      <trkpt lat="44.07213" lon="4.4613">
        <ele>198</ele>
        <time>2008-08-07T08:23:03.060Z</time>
      </trkpt>
      <trkpt lat="44.07185" lon="4.46123">
        <ele>194</ele>
        <time>2008-08-07T08:23:12.060Z</time>
      </trkpt>
      <trkpt lat="44.0716" lon="4.4611">
        <ele>192</ele>
        <time>2008-08-07T08:23:20.061Z</time>
      </trkpt>
      <trkpt lat="44.0708" lon="4.4612">
        <ele>181</ele>
        <time>2008-08-07T08:23:40.060Z</time>
      </trkpt>
      <trkpt lat="44.07047" lon="4.4611">
        <ele>176</ele>
        <time>2008-08-07T08:23:56.060Z</time>
      </trkpt>
      <trkpt lat="44.07002" lon="4.46125">
        <ele>172</ele>
        <time>2008-08-07T08:24:06.060Z</time>
      </trkpt>
      <trkpt lat="44.06975" lon="4.46158">
        <ele>168</ele>
        <time>2008-08-07T08:24:14.061Z</time>
      </trkpt>
      <trkpt lat="44.06937" lon="4.46168">
        <ele>164</ele>
        <time>2008-08-07T08:24:26.061Z</time>
      </trkpt>
      <trkpt lat="44.06903" lon="4.4617">
        <ele>160</ele>
        <time>2008-08-07T08:24:34.060Z</time>
      </trkpt>
      <trkpt lat="44.06897" lon="4.46133">
        <ele>159</ele>
        <time>2008-08-07T08:24:42.061Z</time>
      </trkpt>
      <trkpt lat="44.06902" lon="4.46092">
        <ele>160</ele>
        <time>2008-08-07T08:24:50.060Z</time>
      </trkpt>
      <trkpt lat="44.06905" lon="4.46015">
        <ele>159</ele>
        <time>2008-08-07T08:25:02.060Z</time>
      </trkpt>
      <trkpt lat="44.06907" lon="4.45965">
        <ele>160</ele>
        <time>2008-08-07T08:25:09.060Z</time>
      </trkpt>
      <trkpt lat="44.0691" lon="4.4584">
        <ele>162</ele>
        <time>2008-08-07T08:25:32.060Z</time>
      </trkpt>
      <trkpt lat="44.06925" lon="4.45803">
        <ele>163</ele>
        <time>2008-08-07T08:25:41.061Z</time>
      </trkpt>
      <trkpt lat="44.06915" lon="4.4575">
        <ele>162</ele>
        <time>2008-08-07T08:25:50.061Z</time>
      </trkpt>
      <trkpt lat="44.069" lon="4.45718">
        <ele>161</ele>
        <time>2008-08-07T08:25:56.061Z</time>
      </trkpt>
      <trkpt lat="44.06897" lon="4.45673">
        <ele>161</ele>
        <time>2008-08-07T08:26:03.061Z</time>
      </trkpt>
      <trkpt lat="44.06862" lon="4.45635">
        <ele>157</ele>
        <time>2008-08-07T08:26:12.060Z</time>
      </trkpt>
      <trkpt lat="44.06748" lon="4.45523">
        <ele>150</ele>
        <time>2008-08-07T08:26:36.061Z</time>
      </trkpt>
      <trkpt lat="44.06618" lon="4.4548">
        <ele>144</ele>
        <time>2008-08-07T08:26:57.061Z</time>
      </trkpt>
      <trkpt lat="44.06488" lon="4.45438">
        <ele>140</ele>
        <time>2008-08-07T08:33:06.062Z</time>
      </trkpt>
      <trkpt lat="44.06522" lon="4.45563">
        <ele>143</ele>
        <time>2008-08-07T08:33:33.061Z</time>
      </trkpt>
      <trkpt lat="44.06617" lon="4.45817">
        <ele>144</ele>
        <time>2008-08-07T08:34:06.061Z</time>
      </trkpt>
      <trkpt lat="44.06645" lon="4.45877">
        <ele>144</ele>
        <time>2008-08-07T08:34:14.062Z</time>
      </trkpt>
      <trkpt lat="44.06682" lon="4.46085">
        <ele>145</ele>
        <time>2008-08-07T08:34:39.062Z</time>
      </trkpt>
      <trkpt lat="44.06493" lon="4.46065">
        <ele>140</ele>
        <time>2008-08-07T08:35:26.062Z</time>
      </trkpt>
      <trkpt lat="44.06357" lon="4.46072">
        <ele>139</ele>
        <time>2008-08-07T08:35:48.062Z</time>
      </trkpt>
      <trkpt lat="44.06097" lon="4.4614">
        <ele>143</ele>
        <time>2008-08-07T08:36:28.062Z</time>
      </trkpt>
      <trkpt lat="44.06052" lon="4.46155">
        <ele>142</ele>
        <time>2008-08-07T08:36:37.062Z</time>
      </trkpt>
      <trkpt lat="44.06048" lon="4.46115">
        <ele>149</ele>
        <time>2008-08-07T08:37:15.061Z</time>
      </trkpt>
      <trkpt lat="44.06022" lon="4.4606">
        <ele>149</ele>
        <time>2008-08-07T08:37:27.063Z</time>
      </trkpt>
      <trkpt lat="44.05978" lon="4.45937">
        <ele>145</ele>
        <time>2008-08-07T08:37:47.062Z</time>
      </trkpt>
      <trkpt lat="44.05945" lon="4.45882">
        <ele>145</ele>
        <time>2008-08-07T08:37:56.062Z</time>
      </trkpt>
      <trkpt lat="44.05932" lon="4.45775">
        <ele>146</ele>
        <time>2008-08-07T08:38:10.062Z</time>
      </trkpt>
      <trkpt lat="44.05927" lon="4.45725">
        <ele>146</ele>
        <time>2008-08-07T08:38:17.062Z</time>
      </trkpt>
      <trkpt lat="44.05905" lon="4.45663">
        <ele>146</ele>
        <time>2008-08-07T08:38:28.063Z</time>
      </trkpt>
      <trkpt lat="44.05882" lon="4.45613">
        <ele>146</ele>
        <time>2008-08-07T08:38:37.063Z</time>
      </trkpt>
      <trkpt lat="44.05865" lon="4.45558">
        <ele>146</ele>
        <time>2008-08-07T08:38:46.062Z</time>
      </trkpt>
      <trkpt lat="44.05872" lon="4.45472">
        <ele>148</ele>
        <time>2008-08-07T08:39:00.063Z</time>
      </trkpt>
      <trkpt lat="44.05858" lon="4.45403">
        <ele>149</ele>
        <time>2008-08-07T08:39:12.063Z</time>
      </trkpt>
      <trkpt lat="44.05845" lon="4.4536">
        <ele>150</ele>
        <time>2008-08-07T08:39:20.062Z</time>
      </trkpt>
      <trkpt lat="44.0592" lon="4.4537">
        <ele>161</ele>
        <time>2008-08-07T08:40:21.062Z</time>
      </trkpt>
      <trkpt lat="44.0595" lon="4.4537">
        <ele>167</ele>
        <time>2008-08-07T08:40:35.062Z</time>
      </trkpt>
      <trkpt lat="44.05973" lon="4.45378">
        <ele>169</ele>
        <time>2008-08-07T08:40:45.063Z</time>
      </trkpt>
      <trkpt lat="44.05998" lon="4.45402">
        <ele>175</ele>
        <time>2008-08-07T08:40:59.062Z</time>
      </trkpt>
      <trkpt lat="44.06042" lon="4.4543">
        <ele>178</ele>
        <time>2008-08-07T08:41:17.062Z</time>
      </trkpt>
      <trkpt lat="44.06073" lon="4.45442">
        <ele>179</ele>
        <time>2008-08-07T08:41:28.063Z</time>
      </trkpt>
      <trkpt lat="44.06102" lon="4.45443">
        <ele>181</ele>
        <time>2008-08-07T08:41:41.063Z</time>
      </trkpt>
      <trkpt lat="44.061" lon="4.45405">
        <ele>183</ele>
        <time>2008-08-07T08:41:52.062Z</time>
      </trkpt>
      <trkpt lat="44.06087" lon="4.45323">
        <ele>185</ele>
        <time>2008-08-07T08:42:10.063Z</time>
      </trkpt>
      <trkpt lat="44.06047" lon="4.45297">
        <ele>183</ele>
        <time>2008-08-07T08:42:22.063Z</time>
      </trkpt>
      <trkpt lat="44.06017" lon="4.45268">
        <ele>183</ele>
        <time>2008-08-07T08:42:29.063Z</time>
      </trkpt>
      <trkpt lat="44.0597" lon="4.45248">
        <ele>180</ele>
        <time>2008-08-07T08:42:38.063Z</time>
      </trkpt>
      <trkpt lat="44.05935" lon="4.45202">
        <ele>179</ele>
        <time>2008-08-07T08:42:48.063Z</time>
      </trkpt>
      <trkpt lat="44.0591" lon="4.45185">
        <ele>177</ele>
        <time>2008-08-07T08:42:55.063Z</time>
      </trkpt>
      <trkpt lat="44.05877" lon="4.45167">
        <ele>175</ele>
        <time>2008-08-07T08:43:07.062Z</time>
      </trkpt>
      <trkpt lat="44.05805" lon="4.45157">
        <ele>173</ele>
        <time>2008-08-07T08:43:20.063Z</time>
      </trkpt>
      <trkpt lat="44.0572" lon="4.4509">
        <ele>172</ele>
        <time>2008-08-07T08:43:39.063Z</time>
      </trkpt>
      <trkpt lat="44.05625" lon="4.45042">
        <ele>175</ele>
        <time>2008-08-07T08:44:01.064Z</time>
      </trkpt>
      <trkpt lat="44.05583" lon="4.45037">
        <ele>177</ele>
        <time>2008-08-07T08:44:13.064Z</time>
      </trkpt>
      <trkpt lat="44.05552" lon="4.45008">
        <ele>179</ele>
        <time>2008-08-07T08:44:24.063Z</time>
      </trkpt>
      <trkpt lat="44.05528" lon="4.44923">
        <ele>175</ele>
        <time>2008-08-07T08:44:39.063Z</time>
      </trkpt>
      <trkpt lat="44.05502" lon="4.44873">
        <ele>171</ele>
        <time>2008-08-07T08:44:46.063Z</time>
      </trkpt>
      <trkpt lat="44.0548" lon="4.44883">
        <ele>171</ele>
        <time>2008-08-07T08:45:03.063Z</time>
      </trkpt>
      <trkpt lat="44.05428" lon="4.44875">
        <ele>168</ele>
        <time>2008-08-07T08:45:12.063Z</time>
      </trkpt>
      <trkpt lat="44.05327" lon="4.44815">
        <ele>163</ele>
        <time>2008-08-07T08:45:25.064Z</time>
      </trkpt>
      <trkpt lat="44.05138" lon="4.44807">
        <ele>150</ele>
        <time>2008-08-07T08:45:44.064Z</time>
      </trkpt>
      <trkpt lat="44.05123" lon="4.44772">
        <ele>149</ele>
        <time>2008-08-07T08:45:49.064Z</time>
      </trkpt>
      <trkpt lat="44.05067" lon="4.4476">
        <ele>147</ele>
        <time>2008-08-07T08:45:57.063Z</time>
      </trkpt>
      <trkpt lat="44.05032" lon="4.4472">
        <ele>146</ele>
        <time>2008-08-07T08:46:03.064Z</time>
      </trkpt>
      <trkpt lat="44.05002" lon="4.44708">
        <ele>145</ele>
        <time>2008-08-07T08:46:08.063Z</time>
      </trkpt>
      <trkpt lat="44.04982" lon="4.44678">
        <ele>145</ele>
        <time>2008-08-07T08:46:14.064Z</time>
      </trkpt>
      <trkpt lat="44.04893" lon="4.44643">
        <ele>147</ele>
        <time>2008-08-07T08:46:31.064Z</time>
      </trkpt>
      <trkpt lat="44.0486" lon="4.44585">
        <ele>148</ele>
        <time>2008-08-07T08:46:40.064Z</time>
      </trkpt>
      <trkpt lat="44.04832" lon="4.44505">
        <ele>146</ele>
        <time>2008-08-07T08:46:50.063Z</time>
      </trkpt>
      <trkpt lat="44.04772" lon="4.44382">
        <ele>142</ele>
        <time>2008-08-07T08:47:07.063Z</time>
      </trkpt>
      <trkpt lat="44.04747" lon="4.44298">
        <ele>138</ele>
        <time>2008-08-07T08:47:15.064Z</time>
      </trkpt>
      <trkpt lat="44.04733" lon="4.44245">
        <ele>137</ele>
        <time>2008-08-07T08:47:20.064Z</time>
      </trkpt>
      <trkpt lat="44.04692" lon="4.44232">
        <ele>139</ele>
        <time>2008-08-07T08:47:26.063Z</time>
      </trkpt>
      <trkpt lat="44.04668" lon="4.44205">
        <ele>139</ele>
        <time>2008-08-07T08:47:31.063Z</time>
      </trkpt>
      <trkpt lat="44.04655" lon="4.44223">
        <ele>142</ele>
        <time>2008-08-07T08:47:38.064Z</time>
      </trkpt>
      <trkpt lat="44.04637" lon="4.4425">
        <ele>143</ele>
        <time>2008-08-07T08:47:47.063Z</time>
      </trkpt>
      <trkpt lat="44.04575" lon="4.44252">
        <ele>138</ele>
        <time>2008-08-07T08:48:00.064Z</time>
      </trkpt>
      <trkpt lat="44.04527" lon="4.44298">
        <ele>133</ele>
        <time>2008-08-07T08:48:13.064Z</time>
      </trkpt>
      <trkpt lat="44.04507" lon="4.44305">
        <ele>128</ele>
        <time>2008-08-07T08:49:33.064Z</time>
      </trkpt>
      <trkpt lat="44.0446" lon="4.44292">
        <ele>117</ele>
        <time>2008-08-07T08:49:49.064Z</time>
      </trkpt>
      <trkpt lat="44.04372" lon="4.44292">
        <ele>115</ele>
        <time>2008-08-07T08:50:08.064Z</time>
      </trkpt>
      <trkpt lat="44.04383" lon="4.4414">
        <ele>113</ele>
        <time>2008-08-07T08:50:32.065Z</time>
      </trkpt>
      <trkpt lat="44.04383" lon="4.44115">
        <ele>114</ele>
        <time>2008-08-07T08:51:37.065Z</time>
      </trkpt>
      <trkpt lat="44.04382" lon="4.44067">
        <ele>111</ele>
        <time>2008-08-07T08:51:50.065Z</time>
      </trkpt>
      <trkpt lat="44.04345" lon="4.44053">
        <ele>113</ele>
        <time>2008-08-07T08:52:03.064Z</time>
      </trkpt>
    </trkseg>
  </trk>
</gpx>